sensor_id;sensor_type;location;lat;lon;timestamp;P1;durP1;ratioP1;P2;durP2;ratioP2
74487;SDS011;63019;51.080;13.642;2024-03-02T00:00:33;60.97;;;24.25;;
74487;SDS011;63019;51.080;13.642;2024-03-02T00:01:35;60.20;;;24.40;;
74487;SDS011;63019;51.080;13.642;2024-03-02T00:02:44;64.70;;;25.00;;
74487;SDS011;63019;51.080;13.642;2024-03-02T00:03:47;65.13;;;24.63;;
74487;SDS011;63019;51.080;13.642;2024-03-02T00:04:49;54.13;;;24.87;;
74487;SDS011;63019;51.080;13.642;2024-03-02T00:05:51;57.83;;;24.83;;
74487;SDS011;63019;51.080;13.642;2024-03-02T00:06:53;56.58;;;24.40;;
74487;SDS011;63019;51.080;13.642;2024-03-02T00:07:58;52.22;;;24.33;;
74487;SDS011;63019;51.080;13.642;2024-03-02T00:09:01;54.05;;;24.95;;
74487;SDS011;63019;51.080;13.642;2024-03-02T00:10:07;55.72;;;24.45;;
74487;SDS011;63019;51.080;13.642;2024-03-02T00:11:12;60.00;;;25.55;;
74487;SDS011;63019;51.080;13.642;2024-03-02T00:12:15;69.00;;;25.45;;
74487;SDS011;63019;51.080;13.642;2024-03-02T00:13:20;61.17;;;24.90;;
74487;SDS011;63019;51.080;13.642;2024-03-02T00:14:25;55.93;;;23.87;;
74487;SDS011;63019;51.080;13.642;2024-03-02T00:16:44;58.30;;;25.58;;
74487;SDS011;63019;51.080;13.642;2024-03-02T00:17:47;59.30;;;24.70;;
74487;SDS011;63019;51.080;13.642;2024-03-02T00:19:00;62.53;;;27.20;;
74487;SDS011;63019;51.080;13.642;2024-03-02T00:20:04;57.13;;;25.10;;
74487;SDS011;63019;51.080;13.642;2024-03-02T00:21:10;58.60;;;25.00;;
74487;SDS011;63019;51.080;13.642;2024-03-02T00:22:14;68.78;;;24.77;;
74487;SDS011;63019;51.080;13.642;2024-03-02T00:23:16;61.25;;;26.05;;
74487;SDS011;63019;51.080;13.642;2024-03-02T00:24:21;59.70;;;24.52;;
74487;SDS011;63019;51.080;13.642;2024-03-02T00:25:37;56.03;;;22.70;;
74487;SDS011;63019;51.080;13.642;2024-03-02T00:26:44;48.80;;;23.07;;
74487;SDS011;63019;51.080;13.642;2024-03-02T00:27:49;51.90;;;23.25;;
74487;SDS011;63019;51.080;13.642;2024-03-02T00:28:53;57.08;;;23.80;;
74487;SDS011;63019;51.080;13.642;2024-03-02T00:29:58;56.55;;;22.88;;
74487;SDS011;63019;51.080;13.642;2024-03-02T00:31:06;54.08;;;24.05;;
74487;SDS011;63019;51.080;13.642;2024-03-02T00:32:12;58.78;;;22.15;;
74487;SDS011;63019;51.080;13.642;2024-03-02T00:33:17;55.28;;;22.42;;
74487;SDS011;63019;51.080;13.642;2024-03-02T00:34:20;52.83;;;23.05;;
74487;SDS011;63019;51.080;13.642;2024-03-02T00:35:22;56.10;;;23.23;;
74487;SDS011;63019;51.080;13.642;2024-03-02T00:36:25;48.63;;;21.70;;
74487;SDS011;63019;51.080;13.642;2024-03-02T00:37:28;49.83;;;22.00;;
74487;SDS011;63019;51.080;13.642;2024-03-02T00:38:31;53.63;;;22.92;;
74487;SDS011;63019;51.080;13.642;2024-03-02T00:39:33;60.13;;;24.55;;
74487;SDS011;63019;51.080;13.642;2024-03-02T00:40:35;50.28;;;22.60;;
74487;SDS011;63019;51.080;13.642;2024-03-02T00:41:37;50.30;;;22.90;;
74487;SDS011;63019;51.080;13.642;2024-03-02T00:42:43;50.55;;;23.98;;
74487;SDS011;63019;51.080;13.642;2024-03-02T00:45:00;60.67;;;24.90;;
74487;SDS011;63019;51.080;13.642;2024-03-02T00:46:02;65.85;;;26.60;;
74487;SDS011;63019;51.080;13.642;2024-03-02T00:47:04;63.70;;;26.17;;
74487;SDS011;63019;51.080;13.642;2024-03-02T00:48:06;60.47;;;24.37;;
74487;SDS011;63019;51.080;13.642;2024-03-02T00:49:21;64.10;;;26.33;;
74487;SDS011;63019;51.080;13.642;2024-03-02T00:50:23;61.72;;;25.02;;
74487;SDS011;63019;51.080;13.642;2024-03-02T00:51:32;61.55;;;26.20;;
74487;SDS011;63019;51.080;13.642;2024-03-02T00:52:35;59.10;;;25.05;;
74487;SDS011;63019;51.080;13.642;2024-03-02T00:53:37;57.63;;;25.05;;
74487;SDS011;63019;51.080;13.642;2024-03-02T00:54:39;64.95;;;25.27;;
74487;SDS011;63019;51.080;13.642;2024-03-02T00:55:41;58.40;;;24.15;;
74487;SDS011;63019;51.080;13.642;2024-03-02T00:56:45;56.75;;;23.80;;
74487;SDS011;63019;51.080;13.642;2024-03-02T00:57:49;49.00;;;23.73;;
74487;SDS011;63019;51.080;13.642;2024-03-02T00:58:51;58.63;;;24.47;;
74487;SDS011;63019;51.080;13.642;2024-03-02T00:59:54;54.65;;;23.33;;
74487;SDS011;63019;51.080;13.642;2024-03-02T01:00:56;58.85;;;24.02;;
74487;SDS011;63019;51.080;13.642;2024-03-02T01:01:59;56.25;;;25.52;;
74487;SDS011;63019;51.080;13.642;2024-03-02T01:03:00;61.20;;;23.90;;
74487;SDS011;63019;51.080;13.642;2024-03-02T01:04:03;57.15;;;24.92;;
74487;SDS011;63019;51.080;13.642;2024-03-02T01:05:05;55.55;;;23.80;;
74487;SDS011;63019;51.080;13.642;2024-03-02T01:06:07;52.88;;;24.73;;
74487;SDS011;63019;51.080;13.642;2024-03-02T01:07:09;55.08;;;23.20;;
74487;SDS011;63019;51.080;13.642;2024-03-02T01:08:11;55.17;;;23.90;;
74487;SDS011;63019;51.080;13.642;2024-03-02T01:09:13;59.07;;;24.37;;
74487;SDS011;63019;51.080;13.642;2024-03-02T01:10:15;56.00;;;23.73;;
74487;SDS011;63019;51.080;13.642;2024-03-02T01:11:17;57.30;;;25.10;;
74487;SDS011;63019;51.080;13.642;2024-03-02T01:12:20;65.13;;;24.92;;
74487;SDS011;63019;51.080;13.642;2024-03-02T01:13:22;58.65;;;25.42;;
74487;SDS011;63019;51.080;13.642;2024-03-02T01:14:25;59.92;;;24.33;;
74487;SDS011;63019;51.080;13.642;2024-03-02T01:15:27;67.93;;;25.58;;
74487;SDS011;63019;51.080;13.642;2024-03-02T01:16:29;58.90;;;24.98;;
74487;SDS011;63019;51.080;13.642;2024-03-02T01:17:30;65.55;;;25.35;;
74487;SDS011;63019;51.080;13.642;2024-03-02T01:18:32;59.60;;;24.33;;
74487;SDS011;63019;51.080;13.642;2024-03-02T01:19:35;66.23;;;23.80;;
74487;SDS011;63019;51.080;13.642;2024-03-02T01:20:37;62.05;;;25.63;;
74487;SDS011;63019;51.080;13.642;2024-03-02T01:21:39;57.97;;;24.10;;
74487;SDS011;63019;51.080;13.642;2024-03-02T01:22:41;60.65;;;24.65;;
74487;SDS011;63019;51.080;13.642;2024-03-02T01:23:43;58.92;;;24.98;;
74487;SDS011;63019;51.080;13.642;2024-03-02T01:24:45;57.42;;;24.15;;
74487;SDS011;63019;51.080;13.642;2024-03-02T01:25:47;59.50;;;24.50;;
74487;SDS011;63019;51.080;13.642;2024-03-02T01:26:49;60.90;;;24.75;;
74487;SDS011;63019;51.080;13.642;2024-03-02T01:27:52;58.47;;;24.67;;
74487;SDS011;63019;51.080;13.642;2024-03-02T01:28:54;64.20;;;25.33;;
74487;SDS011;63019;51.080;13.642;2024-03-02T01:29:55;66.57;;;26.17;;
74487;SDS011;63019;51.080;13.642;2024-03-02T01:30:57;63.00;;;25.80;;
74487;SDS011;63019;51.080;13.642;2024-03-02T01:31:59;57.88;;;24.65;;
74487;SDS011;63019;51.080;13.642;2024-03-02T01:33:01;57.80;;;25.25;;
74487;SDS011;63019;51.080;13.642;2024-03-02T01:34:04;60.30;;;25.98;;
74487;SDS011;63019;51.080;13.642;2024-03-02T01:35:06;59.90;;;26.02;;
74487;SDS011;63019;51.080;13.642;2024-03-02T01:36:08;58.15;;;24.38;;
74487;SDS011;63019;51.080;13.642;2024-03-02T01:37:10;59.45;;;26.00;;
74487;SDS011;63019;51.080;13.642;2024-03-02T01:38:12;66.43;;;25.77;;
74487;SDS011;63019;51.080;13.642;2024-03-02T01:39:14;60.23;;;25.10;;
74487;SDS011;63019;51.080;13.642;2024-03-02T01:40:16;67.33;;;26.50;;
74487;SDS011;63019;51.080;13.642;2024-03-02T01:41:18;57.63;;;25.10;;
74487;SDS011;63019;51.080;13.642;2024-03-02T01:42:20;63.95;;;25.85;;
74487;SDS011;63019;51.080;13.642;2024-03-02T01:43:22;58.72;;;25.92;;
74487;SDS011;63019;51.080;13.642;2024-03-02T01:44:24;62.08;;;26.80;;
74487;SDS011;63019;51.080;13.642;2024-03-02T01:45:26;62.03;;;25.98;;
74487;SDS011;63019;51.080;13.642;2024-03-02T01:46:28;66.10;;;26.95;;
74487;SDS011;63019;51.080;13.642;2024-03-02T01:47:30;65.38;;;26.50;;
74487;SDS011;63019;51.080;13.642;2024-03-02T01:48:33;62.08;;;26.30;;
74487;SDS011;63019;51.080;13.642;2024-03-02T01:49:35;58.80;;;25.83;;
74487;SDS011;63019;51.080;13.642;2024-03-02T01:50:38;59.00;;;25.47;;
74487;SDS011;63019;51.080;13.642;2024-03-02T01:51:40;55.47;;;24.98;;
74487;SDS011;63019;51.080;13.642;2024-03-02T01:52:42;52.83;;;23.98;;
74487;SDS011;63019;51.080;13.642;2024-03-02T01:53:45;57.00;;;25.25;;
74487;SDS011;63019;51.080;13.642;2024-03-02T01:54:47;52.50;;;24.08;;
74487;SDS011;63019;51.080;13.642;2024-03-02T01:55:49;58.92;;;23.67;;
74487;SDS011;63019;51.080;13.642;2024-03-02T01:56:51;56.53;;;24.65;;
74487;SDS011;63019;51.080;13.642;2024-03-02T01:57:53;58.70;;;24.33;;
74487;SDS011;63019;51.080;13.642;2024-03-02T01:58:55;55.83;;;24.45;;
74487;SDS011;63019;51.080;13.642;2024-03-02T01:59:57;53.23;;;24.17;;
74487;SDS011;63019;51.080;13.642;2024-03-02T02:00:59;62.50;;;24.13;;
74487;SDS011;63019;51.080;13.642;2024-03-02T02:02:02;54.70;;;24.45;;
74487;SDS011;63019;51.080;13.642;2024-03-02T02:03:04;54.50;;;24.77;;
74487;SDS011;63019;51.080;13.642;2024-03-02T02:04:06;54.47;;;24.15;;
74487;SDS011;63019;51.080;13.642;2024-03-02T02:05:08;50.28;;;24.48;;
74487;SDS011;63019;51.080;13.642;2024-03-02T02:06:10;54.00;;;24.40;;
74487;SDS011;63019;51.080;13.642;2024-03-02T02:07:12;48.95;;;24.27;;
74487;SDS011;63019;51.080;13.642;2024-03-02T02:08:15;54.45;;;23.73;;
74487;SDS011;63019;51.080;13.642;2024-03-02T02:09:18;53.67;;;24.95;;
74487;SDS011;63019;51.080;13.642;2024-03-02T02:10:20;57.07;;;25.43;;
74487;SDS011;63019;51.080;13.642;2024-03-02T02:11:22;62.20;;;26.37;;
74487;SDS011;63019;51.080;13.642;2024-03-02T02:12:24;65.45;;;26.95;;
74487;SDS011;63019;51.080;13.642;2024-03-02T02:13:26;65.57;;;28.30;;
74487;SDS011;63019;51.080;13.642;2024-03-02T02:14:28;67.60;;;27.38;;
74487;SDS011;63019;51.080;13.642;2024-03-02T02:15:30;74.88;;;29.13;;
74487;SDS011;63019;51.080;13.642;2024-03-02T02:16:33;65.38;;;26.83;;
74487;SDS011;63019;51.080;13.642;2024-03-02T02:17:35;72.55;;;28.55;;
74487;SDS011;63019;51.080;13.642;2024-03-02T02:18:37;67.25;;;29.13;;
74487;SDS011;63019;51.080;13.642;2024-03-02T02:19:40;65.25;;;27.92;;
74487;SDS011;63019;51.080;13.642;2024-03-02T02:20:42;67.10;;;25.90;;
74487;SDS011;63019;51.080;13.642;2024-03-02T02:21:44;65.13;;;26.47;;
74487;SDS011;63019;51.080;13.642;2024-03-02T02:23:02;61.47;;;26.45;;
74487;SDS011;63019;51.080;13.642;2024-03-02T02:24:06;55.20;;;24.83;;
74487;SDS011;63019;51.080;13.642;2024-03-02T02:25:08;54.35;;;25.20;;
74487;SDS011;63019;51.080;13.642;2024-03-02T02:26:10;55.20;;;24.95;;
74487;SDS011;63019;51.080;13.642;2024-03-02T02:27:12;52.55;;;25.08;;
74487;SDS011;63019;51.080;13.642;2024-03-02T02:28:16;59.95;;;26.08;;
74487;SDS011;63019;51.080;13.642;2024-03-02T02:29:18;54.15;;;24.38;;
74487;SDS011;63019;51.080;13.642;2024-03-02T02:30:30;50.42;;;23.60;;
74487;SDS011;63019;51.080;13.642;2024-03-02T02:31:37;56.83;;;24.73;;
74487;SDS011;63019;51.080;13.642;2024-03-02T02:32:40;64.53;;;26.33;;
74487;SDS011;63019;51.080;13.642;2024-03-02T02:33:42;53.05;;;23.55;;
74487;SDS011;63019;51.080;13.642;2024-03-02T02:34:44;54.80;;;23.98;;
74487;SDS011;63019;51.080;13.642;2024-03-02T02:35:46;51.70;;;23.42;;
74487;SDS011;63019;51.080;13.642;2024-03-02T02:36:48;57.83;;;24.08;;
74487;SDS011;63019;51.080;13.642;2024-03-02T02:37:50;54.20;;;24.45;;
74487;SDS011;63019;51.080;13.642;2024-03-02T02:38:53;50.13;;;23.38;;
74487;SDS011;63019;51.080;13.642;2024-03-02T02:39:55;50.55;;;23.75;;
74487;SDS011;63019;51.080;13.642;2024-03-02T02:40:57;52.25;;;23.20;;
74487;SDS011;63019;51.080;13.642;2024-03-02T02:41:59;50.67;;;23.37;;
74487;SDS011;63019;51.080;13.642;2024-03-02T02:43:02;54.13;;;23.67;;
74487;SDS011;63019;51.080;13.642;2024-03-02T02:44:05;55.38;;;23.63;;
74487;SDS011;63019;51.080;13.642;2024-03-02T02:45:07;65.82;;;25.20;;
74487;SDS011;63019;51.080;13.642;2024-03-02T02:46:09;55.53;;;25.23;;
74487;SDS011;63019;51.080;13.642;2024-03-02T02:47:11;57.88;;;25.20;;
74487;SDS011;63019;51.080;13.642;2024-03-02T02:48:13;61.42;;;24.48;;
74487;SDS011;63019;51.080;13.642;2024-03-02T02:49:15;59.83;;;25.42;;
74487;SDS011;63019;51.080;13.642;2024-03-02T02:50:18;57.60;;;24.70;;
74487;SDS011;63019;51.080;13.642;2024-03-02T02:51:20;58.72;;;25.73;;
74487;SDS011;63019;51.080;13.642;2024-03-02T02:52:22;56.13;;;23.73;;
74487;SDS011;63019;51.080;13.642;2024-03-02T02:53:24;52.20;;;23.67;;
74487;SDS011;63019;51.080;13.642;2024-03-02T02:54:25;61.13;;;24.00;;
74487;SDS011;63019;51.080;13.642;2024-03-02T02:55:27;60.72;;;24.30;;
74487;SDS011;63019;51.080;13.642;2024-03-02T02:56:29;53.60;;;23.70;;
74487;SDS011;63019;51.080;13.642;2024-03-02T02:57:34;59.47;;;24.75;;
74487;SDS011;63019;51.080;13.642;2024-03-02T02:58:42;53.63;;;24.33;;
74487;SDS011;63019;51.080;13.642;2024-03-02T02:59:43;56.70;;;24.38;;
74487;SDS011;63019;51.080;13.642;2024-03-02T03:00:46;58.78;;;24.67;;
74487;SDS011;63019;51.080;13.642;2024-03-02T03:01:48;57.60;;;25.65;;
74487;SDS011;63019;51.080;13.642;2024-03-02T03:02:50;56.23;;;25.13;;
74487;SDS011;63019;51.080;13.642;2024-03-02T03:03:52;55.23;;;24.17;;
74487;SDS011;63019;51.080;13.642;2024-03-02T03:04:54;50.50;;;25.02;;
74487;SDS011;63019;51.080;13.642;2024-03-02T03:05:58;52.30;;;23.60;;
74487;SDS011;63019;51.080;13.642;2024-03-02T03:07:00;59.53;;;25.75;;
74487;SDS011;63019;51.080;13.642;2024-03-02T03:08:02;54.70;;;24.00;;
74487;SDS011;63019;51.080;13.642;2024-03-02T03:09:05;57.40;;;24.33;;
74487;SDS011;63019;51.080;13.642;2024-03-02T03:10:07;57.33;;;25.42;;
74487;SDS011;63019;51.080;13.642;2024-03-02T03:11:09;56.78;;;24.63;;
74487;SDS011;63019;51.080;13.642;2024-03-02T03:12:12;61.90;;;25.35;;
74487;SDS011;63019;51.080;13.642;2024-03-02T03:13:13;58.30;;;25.07;;
74487;SDS011;63019;51.080;13.642;2024-03-02T03:14:15;53.27;;;24.03;;
74487;SDS011;63019;51.080;13.642;2024-03-02T03:15:17;52.33;;;23.45;;
74487;SDS011;63019;51.080;13.642;2024-03-02T03:16:19;52.08;;;24.17;;
74487;SDS011;63019;51.080;13.642;2024-03-02T03:17:21;57.47;;;24.52;;
74487;SDS011;63019;51.080;13.642;2024-03-02T03:18:24;57.60;;;24.55;;
74487;SDS011;63019;51.080;13.642;2024-03-02T03:19:26;54.50;;;23.13;;
74487;SDS011;63019;51.080;13.642;2024-03-02T03:20:28;54.95;;;23.55;;
74487;SDS011;63019;51.080;13.642;2024-03-02T03:21:30;52.28;;;24.15;;
74487;SDS011;63019;51.080;13.642;2024-03-02T03:22:32;46.92;;;23.27;;
74487;SDS011;63019;51.080;13.642;2024-03-02T03:23:34;50.83;;;23.63;;
74487;SDS011;63019;51.080;13.642;2024-03-02T03:24:36;51.27;;;23.33;;
74487;SDS011;63019;51.080;13.642;2024-03-02T03:25:38;54.67;;;24.20;;
74487;SDS011;63019;51.080;13.642;2024-03-02T03:26:40;55.38;;;24.00;;
74487;SDS011;63019;51.080;13.642;2024-03-02T03:27:42;53.22;;;24.08;;
74487;SDS011;63019;51.080;13.642;2024-03-02T03:28:44;57.10;;;25.17;;
74487;SDS011;63019;51.080;13.642;2024-03-02T03:29:46;54.28;;;23.50;;
74487;SDS011;63019;51.080;13.642;2024-03-02T03:30:48;52.90;;;22.63;;
74487;SDS011;63019;51.080;13.642;2024-03-02T03:31:51;55.40;;;24.15;;
74487;SDS011;63019;51.080;13.642;2024-03-02T03:32:53;53.90;;;24.50;;
74487;SDS011;63019;51.080;13.642;2024-03-02T03:33:54;54.33;;;24.13;;
74487;SDS011;63019;51.080;13.642;2024-03-02T03:34:56;57.27;;;24.97;;
74487;SDS011;63019;51.080;13.642;2024-03-02T03:35:58;53.53;;;24.70;;
74487;SDS011;63019;51.080;13.642;2024-03-02T03:37:00;55.08;;;24.48;;
74487;SDS011;63019;51.080;13.642;2024-03-02T03:38:03;47.75;;;24.00;;
74487;SDS011;63019;51.080;13.642;2024-03-02T03:39:05;53.33;;;24.63;;
74487;SDS011;63019;51.080;13.642;2024-03-02T03:40:07;55.08;;;24.75;;
74487;SDS011;63019;51.080;13.642;2024-03-02T03:41:12;65.43;;;25.98;;
74487;SDS011;63019;51.080;13.642;2024-03-02T03:42:14;58.30;;;25.58;;
74487;SDS011;63019;51.080;13.642;2024-03-02T03:43:16;54.60;;;23.67;;
74487;SDS011;63019;51.080;13.642;2024-03-02T03:44:18;54.60;;;24.57;;
74487;SDS011;63019;51.080;13.642;2024-03-02T03:45:20;53.13;;;22.97;;
74487;SDS011;63019;51.080;13.642;2024-03-02T03:46:22;56.78;;;24.20;;
74487;SDS011;63019;51.080;13.642;2024-03-02T03:47:24;57.90;;;25.20;;
74487;SDS011;63019;51.080;13.642;2024-03-02T03:48:26;52.70;;;24.05;;
74487;SDS011;63019;51.080;13.642;2024-03-02T03:49:32;56.78;;;25.40;;
74487;SDS011;63019;51.080;13.642;2024-03-02T03:50:34;56.58;;;24.63;;
74487;SDS011;63019;51.080;13.642;2024-03-02T03:51:36;55.08;;;24.80;;
74487;SDS011;63019;51.080;13.642;2024-03-02T03:52:37;55.08;;;23.83;;
74487;SDS011;63019;51.080;13.642;2024-03-02T03:53:39;62.55;;;25.20;;
74487;SDS011;63019;51.080;13.642;2024-03-02T03:54:41;50.37;;;24.20;;
74487;SDS011;63019;51.080;13.642;2024-03-02T03:55:44;53.27;;;25.23;;
74487;SDS011;63019;51.080;13.642;2024-03-02T03:56:48;56.60;;;24.23;;
74487;SDS011;63019;51.080;13.642;2024-03-02T03:57:50;54.83;;;24.95;;
74487;SDS011;63019;51.080;13.642;2024-03-02T03:58:52;52.65;;;24.95;;
74487;SDS011;63019;51.080;13.642;2024-03-02T03:59:54;59.22;;;25.42;;
74487;SDS011;63019;51.080;13.642;2024-03-02T04:00:56;52.55;;;25.38;;
74487;SDS011;63019;51.080;13.642;2024-03-02T04:01:58;55.78;;;24.30;;
74487;SDS011;63019;51.080;13.642;2024-03-02T04:03:00;55.90;;;24.98;;
74487;SDS011;63019;51.080;13.642;2024-03-02T04:04:02;58.65;;;24.80;;
74487;SDS011;63019;51.080;13.642;2024-03-02T04:05:05;53.63;;;25.33;;
74487;SDS011;63019;51.080;13.642;2024-03-02T04:06:10;59.87;;;25.73;;
74487;SDS011;63019;51.080;13.642;2024-03-02T04:07:13;52.35;;;25.45;;
74487;SDS011;63019;51.080;13.642;2024-03-02T04:08:15;55.15;;;24.70;;
74487;SDS011;63019;51.080;13.642;2024-03-02T04:09:17;57.67;;;25.67;;
74487;SDS011;63019;51.080;13.642;2024-03-02T04:10:19;54.83;;;26.05;;
74487;SDS011;63019;51.080;13.642;2024-03-02T04:11:22;55.85;;;25.73;;
74487;SDS011;63019;51.080;13.642;2024-03-02T04:12:24;54.97;;;26.20;;
74487;SDS011;63019;51.080;13.642;2024-03-02T04:13:26;54.10;;;24.70;;
74487;SDS011;63019;51.080;13.642;2024-03-02T04:14:28;59.70;;;26.52;;
74487;SDS011;63019;51.080;13.642;2024-03-02T04:15:30;64.00;;;26.27;;
74487;SDS011;63019;51.080;13.642;2024-03-02T04:16:32;60.33;;;26.67;;
74487;SDS011;63019;51.080;13.642;2024-03-02T04:17:34;57.60;;;26.33;;
74487;SDS011;63019;51.080;13.642;2024-03-02T04:18:37;53.67;;;25.27;;
74487;SDS011;63019;51.080;13.642;2024-03-02T04:19:41;53.65;;;25.13;;
74487;SDS011;63019;51.080;13.642;2024-03-02T04:20:43;54.47;;;25.75;;
74487;SDS011;63019;51.080;13.642;2024-03-02T04:21:44;56.50;;;25.20;;
74487;SDS011;63019;51.080;13.642;2024-03-02T04:22:46;58.88;;;25.77;;
74487;SDS011;63019;51.080;13.642;2024-03-02T04:23:48;61.92;;;27.13;;
74487;SDS011;63019;51.080;13.642;2024-03-02T04:24:50;58.88;;;25.55;;
74487;SDS011;63019;51.080;13.642;2024-03-02T04:25:52;52.17;;;24.43;;
74487;SDS011;63019;51.080;13.642;2024-03-02T04:26:54;59.40;;;24.90;;
74487;SDS011;63019;51.080;13.642;2024-03-02T04:27:56;55.63;;;24.45;;
74487;SDS011;63019;51.080;13.642;2024-03-02T04:28:58;61.03;;;25.63;;
74487;SDS011;63019;51.080;13.642;2024-03-02T04:30:00;58.42;;;26.00;;
74487;SDS011;63019;51.080;13.642;2024-03-02T04:31:02;53.78;;;24.48;;
74487;SDS011;63019;51.080;13.642;2024-03-02T04:32:05;65.25;;;25.98;;
74487;SDS011;63019;51.080;13.642;2024-03-02T04:33:07;69.30;;;24.95;;
74487;SDS011;63019;51.080;13.642;2024-03-02T04:34:11;59.22;;;25.92;;
74487;SDS011;63019;51.080;13.642;2024-03-02T04:35:13;59.40;;;25.65;;
74487;SDS011;63019;51.080;13.642;2024-03-02T04:36:15;59.33;;;25.53;;
74487;SDS011;63019;51.080;13.642;2024-03-02T04:37:17;61.33;;;25.50;;
74487;SDS011;63019;51.080;13.642;2024-03-02T04:38:19;62.53;;;25.45;;
74487;SDS011;63019;51.080;13.642;2024-03-02T04:39:21;55.20;;;25.42;;
74487;SDS011;63019;51.080;13.642;2024-03-02T04:40:23;62.70;;;26.90;;
74487;SDS011;63019;51.080;13.642;2024-03-02T04:41:25;60.65;;;25.60;;
74487;SDS011;63019;51.080;13.642;2024-03-02T04:42:27;61.63;;;26.13;;
74487;SDS011;63019;51.080;13.642;2024-03-02T04:43:29;56.72;;;24.35;;
74487;SDS011;63019;51.080;13.642;2024-03-02T04:44:31;52.05;;;24.02;;
74487;SDS011;63019;51.080;13.642;2024-03-02T04:45:33;53.35;;;23.60;;
74487;SDS011;63019;51.080;13.642;2024-03-02T04:46:34;51.87;;;23.43;;
74487;SDS011;63019;51.080;13.642;2024-03-02T04:47:36;54.10;;;24.03;;
74487;SDS011;63019;51.080;13.642;2024-03-02T04:48:38;52.85;;;22.95;;
74487;SDS011;63019;51.080;13.642;2024-03-02T04:49:40;50.63;;;22.15;;
74487;SDS011;63019;51.080;13.642;2024-03-02T04:50:42;57.85;;;24.63;;
74487;SDS011;63019;51.080;13.642;2024-03-02T04:51:44;56.72;;;24.40;;
74487;SDS011;63019;51.080;13.642;2024-03-02T04:52:46;49.95;;;22.92;;
74487;SDS011;63019;51.080;13.642;2024-03-02T04:53:48;52.25;;;22.70;;
74487;SDS011;63019;51.080;13.642;2024-03-02T04:54:50;48.78;;;22.60;;
74487;SDS011;63019;51.080;13.642;2024-03-02T04:56:10;52.80;;;22.17;;
74487;SDS011;63019;51.080;13.642;2024-03-02T04:57:41;54.43;;;22.87;;
74487;SDS011;63019;51.080;13.642;2024-03-02T04:58:43;52.10;;;22.40;;
74487;SDS011;63019;51.080;13.642;2024-03-02T04:59:45;53.75;;;22.55;;
74487;SDS011;63019;51.080;13.642;2024-03-02T05:00:46;58.65;;;23.15;;
74487;SDS011;63019;51.080;13.642;2024-03-02T05:01:48;62.05;;;24.88;;
74487;SDS011;63019;51.080;13.642;2024-03-02T05:02:50;57.95;;;25.05;;
74487;SDS011;63019;51.080;13.642;2024-03-02T05:03:52;55.78;;;23.17;;
74487;SDS011;63019;51.080;13.642;2024-03-02T05:04:54;57.28;;;24.35;;
74487;SDS011;63019;51.080;13.642;2024-03-02T05:05:56;53.20;;;24.80;;
74487;SDS011;63019;51.080;13.642;2024-03-02T05:06:58;57.45;;;24.05;;
74487;SDS011;63019;51.080;13.642;2024-03-02T05:08:00;56.73;;;23.80;;
74487;SDS011;63019;51.080;13.642;2024-03-02T05:09:02;63.13;;;25.77;;
74487;SDS011;63019;51.080;13.642;2024-03-02T05:10:04;62.83;;;25.17;;
74487;SDS011;63019;51.080;13.642;2024-03-02T05:11:06;55.30;;;24.00;;
74487;SDS011;63019;51.080;13.642;2024-03-02T05:12:26;57.83;;;24.27;;
74487;SDS011;63019;51.080;13.642;2024-03-02T05:13:46;61.15;;;24.75;;
74487;SDS011;63019;51.080;13.642;2024-03-02T05:14:48;60.80;;;24.60;;
74487;SDS011;63019;51.080;13.642;2024-03-02T05:15:50;62.10;;;25.15;;
74487;SDS011;63019;51.080;13.642;2024-03-02T05:16:53;64.30;;;26.40;;
74487;SDS011;63019;51.080;13.642;2024-03-02T05:17:55;63.83;;;25.38;;
74487;SDS011;63019;51.080;13.642;2024-03-02T05:18:58;69.83;;;26.57;;
74487;SDS011;63019;51.080;13.642;2024-03-02T05:20:00;64.30;;;26.33;;
74487;SDS011;63019;51.080;13.642;2024-03-02T05:21:03;60.22;;;26.00;;
74487;SDS011;63019;51.080;13.642;2024-03-02T05:22:05;58.83;;;26.10;;
74487;SDS011;63019;51.080;13.642;2024-03-02T05:23:07;58.45;;;25.00;;
74487;SDS011;63019;51.080;13.642;2024-03-02T05:24:09;53.45;;;24.20;;
74487;SDS011;63019;51.080;13.642;2024-03-02T05:25:11;52.47;;;23.75;;
74487;SDS011;63019;51.080;13.642;2024-03-02T05:26:13;56.83;;;24.90;;
74487;SDS011;63019;51.080;13.642;2024-03-02T05:27:15;53.85;;;23.65;;
74487;SDS011;63019;51.080;13.642;2024-03-02T05:28:17;59.22;;;24.20;;
74487;SDS011;63019;51.080;13.642;2024-03-02T05:29:19;47.77;;;22.70;;
74487;SDS011;63019;51.080;13.642;2024-03-02T05:30:22;52.27;;;23.37;;
74487;SDS011;63019;51.080;13.642;2024-03-02T05:31:24;52.65;;;23.20;;
74487;SDS011;63019;51.080;13.642;2024-03-02T05:32:25;50.05;;;21.90;;
74487;SDS011;63019;51.080;13.642;2024-03-02T05:33:27;53.88;;;24.20;;
74487;SDS011;63019;51.080;13.642;2024-03-02T05:34:31;57.47;;;24.75;;
74487;SDS011;63019;51.080;13.642;2024-03-02T05:35:36;57.00;;;24.75;;
74487;SDS011;63019;51.080;13.642;2024-03-02T05:36:38;62.88;;;25.00;;
74487;SDS011;63019;51.080;13.642;2024-03-02T05:37:40;59.72;;;24.88;;
74487;SDS011;63019;51.080;13.642;2024-03-02T05:38:42;57.30;;;25.27;;
74487;SDS011;63019;51.080;13.642;2024-03-02T05:39:44;65.27;;;25.17;;
74487;SDS011;63019;51.080;13.642;2024-03-02T05:40:46;66.87;;;26.97;;
74487;SDS011;63019;51.080;13.642;2024-03-02T05:41:48;66.95;;;27.02;;
74487;SDS011;63019;51.080;13.642;2024-03-02T05:42:50;68.20;;;27.08;;
74487;SDS011;63019;51.080;13.642;2024-03-02T05:43:52;58.65;;;24.88;;
74487;SDS011;63019;51.080;13.642;2024-03-02T05:44:53;60.67;;;26.55;;
74487;SDS011;63019;51.080;13.642;2024-03-02T05:45:55;62.33;;;25.10;;
74487;SDS011;63019;51.080;13.642;2024-03-02T05:46:57;57.05;;;24.80;;
74487;SDS011;63019;51.080;13.642;2024-03-02T05:47:59;56.55;;;25.38;;
74487;SDS011;63019;51.080;13.642;2024-03-02T05:49:01;57.83;;;25.00;;
74487;SDS011;63019;51.080;13.642;2024-03-02T05:50:03;62.90;;;24.83;;
74487;SDS011;63019;51.080;13.642;2024-03-02T05:51:06;62.00;;;25.20;;
74487;SDS011;63019;51.080;13.642;2024-03-02T05:52:08;54.50;;;23.73;;
74487;SDS011;63019;51.080;13.642;2024-03-02T05:53:10;54.20;;;24.20;;
74487;SDS011;63019;51.080;13.642;2024-03-02T05:54:12;54.92;;;24.27;;
74487;SDS011;63019;51.080;13.642;2024-03-02T05:55:14;60.25;;;24.33;;
74487;SDS011;63019;51.080;13.642;2024-03-02T05:56:16;56.00;;;23.50;;
74487;SDS011;63019;51.080;13.642;2024-03-02T05:57:18;60.55;;;25.23;;
74487;SDS011;63019;51.080;13.642;2024-03-02T05:58:40;51.03;;;22.65;;
74487;SDS011;63019;51.080;13.642;2024-03-02T06:00:01;50.92;;;22.73;;
74487;SDS011;63019;51.080;13.642;2024-03-02T06:01:05;58.67;;;24.60;;
74487;SDS011;63019;51.080;13.642;2024-03-02T06:02:08;55.97;;;24.27;;
74487;SDS011;63019;51.080;13.642;2024-03-02T06:03:10;64.20;;;24.80;;
74487;SDS011;63019;51.080;13.642;2024-03-02T06:04:12;60.08;;;25.30;;
74487;SDS011;63019;51.080;13.642;2024-03-02T06:05:15;61.15;;;24.77;;